SBOSBO TFS / GCTS
Speedbird OnlineSpeedbird Online TFS / GCTS

Tenerife South Airport
23:56 16.1°C

Location Tenerife, Spain
Latitude: 28.044500351
Longitude: -16.5725002289
Web Airport Website | Wikipedia
Altitude 64 Meter / 209 Feet
Distance 2,958 KM / 1,838 Miles
from London.
Time Zone UTC 0 hours (Atlantic/Canary)
Codes IATA: TFS
ICAO: GCTS
Currency £1 equals EUR 1.13
Runways
RunwayLength (m)Surface
073200Asphalt
253200Asphalt
Radio
TypeDescriptionFrequency
APPAPP120.3
ATISATIS118.675
DLV121.75
GNDGND121.9
TWRTWR119
Live ATC
METAR GCTS 081430Z 19008KT 120V230 9999 FEW042 BKN050 19/11 Q1021 NOSIG
TAF TAF GCTS 081400Z 0815/0915 15005KT 9999 BKN050 TX20/0914Z TN14/0906Z PROB30 TEMPO 0820/0907 DZ
Weather As Of 08 Feb 2023 23:56
Description Light intensity drizzle
Wind 15 km/h from North-East (60°)
Cloud Cover 75%
Precipitation Rain: none, Snow: none
Sunrise 07:49
Sunset 18:51
Lounges Sala Montana Roja , Main Terminal
Rotations During the last 90 days there were
155 flights from LGW
36 flights from LHR
149 flights to LGW
38 flights to LHR



Support Speedbird Online

© 2017-2023 Speedbird Online